Time;durP1;ratioP1;P1;durP2;ratioP2;P2;SDS_P1;SDS_P2;PMS_P1;PMS_P2;Temp;Humidity;BMP_temperature;BMP_pressure;BME280_temperature;BME280_humidity;BME280_pressure;Samples;Min_cycle;Max_cycle;Signal;HPM_P1;HPM_P2
2021/12/23 00:01:34;;;;;;;24.83;9.90;;;-3.20;99.90;-3.70;101108.00;;;;5026849;27;92535;-66
2021/12/23 00:04:00;;;;;;;15.43;11.20;;;-3.20;99.90;-3.70;101108.00;;;;5033052;27;99097;-66
2021/12/23 00:06:26;;;;;;;15.43;10.83;;;-3.20;99.90;-3.80;101109.00;;;;5024516;27;92916;-66
2021/12/23 00:08:52;;;;;;;12.03;9.87;;;-3.30;99.90;-3.80;101088.00;;;;5031661;27;108428;-67
2021/12/23 00:11:18;;;;;;;15.40;10.40;;;-3.40;99.90;-3.90;101085.00;;;;5025841;27;94037;-66
2021/12/23 00:13:51;;;;;;;15.57;11.50;;;-3.40;99.90;-3.90;101075.00;;;;5025933;27;121420;-67
2021/12/23 00:16:19;;;;;;;15.73;9.87;;;-3.40;99.90;-3.90;101065.00;;;;5052806;27;93016;-67
2021/12/23 00:18:56;;;;;;;15.57;10.87;;;-3.50;99.90;-3.90;101062.00;;;;5053884;27;92982;-67
2021/12/23 00:24:06;;;;;;;27.13;10.67;;;-3.50;99.90;-3.90;101059.00;;;;5052352;27;92946;-67
2021/12/23 00:26:32;;;;;;;20.13;10.13;;;-3.50;99.90;-3.90;101057.00;;;;5033358;27;100773;-67
2021/12/23 00:28:58;;;;;;;14.20;9.97;;;-3.50;99.90;-3.90;101062.00;;;;5052715;27;101254;-67
2021/12/23 00:31:23;;;;;;;15.90;9.17;;;-3.50;99.90;-3.90;101072.00;;;;5052180;27;112167;-67
2021/12/23 00:33:49;;;;;;;19.50;11.03;;;-3.40;99.90;-3.90;101056.00;;;;5052582;27;94089;-67
2021/12/23 00:36:15;;;;;;;11.93;8.93;;;-3.40;99.90;-3.90;101055.00;;;;5053131;27;92825;-67
2021/12/23 00:38:53;;;;;;;10.77;8.10;;;-3.50;99.90;-3.90;101047.00;;;;5051955;27;108394;-68
2021/12/23 00:41:20;;;;;;;18.60;10.90;;;-3.40;99.90;-3.90;101054.00;;;;5043597;27;93033;-67
2021/12/23 00:43:47;;;;;;;12.37;9.17;;;-3.40;99.90;-3.80;101053.00;;;;5031300;27;94415;-67
2021/12/23 00:46:12;;;;;;;17.60;10.63;;;-3.30;99.90;-3.80;101047.00;;;;5024351;27;92822;-67
2021/12/23 00:48:39;;;;;;;16.23;10.70;;;-3.40;99.90;-3.90;101044.00;;;;5013129;27;95672;-67
2021/12/23 00:51:06;;;;;;;20.57;10.67;;;-3.30;99.90;-3.80;101050.00;;;;5024039;27;92524;-68
2021/12/23 00:53:38;;;;;;;19.73;9.50;;;-3.30;99.90;-3.90;101044.00;;;;5036325;27;92886;-67
2021/12/23 00:56:05;;;;;;;23.17;11.90;;;-3.40;99.90;-3.90;101041.00;;;;5013616;27;93059;-68
2021/12/23 00:58:31;;;;;;;14.63;10.37;;;-3.30;99.90;-3.90;101030.00;;;;5044778;27;93736;-68
2021/12/23 01:00:59;;;;;;;12.20;8.17;;;-3.40;99.90;-3.90;101030.00;;;;5052363;27;93068;-67
2021/12/23 01:03:25;;;;;;;10.23;7.47;;;-3.50;99.90;-3.90;101043.00;;;;5052381;27;92827;-67
2021/12/23 01:05:51;;;;;;;15.77;9.10;;;-3.40;99.90;-3.90;101036.00;;;;5052072;27;111684;-67
2021/12/23 01:08:19;;;;;;;11.67;8.27;;;-5.00;99.90;-4.00;101037.00;;;;5052322;27;109234;-67
2021/12/23 01:10:52;;;;;;;17.87;10.67;;;-3.40;99.90;-4.00;101019.00;;;;5032515;27;93059;-67
2021/12/23 01:13:19;;;;;;;17.27;9.23;;;-3.50;99.90;-4.00;101026.00;;;;5031465;27;92710;-67
2021/12/23 01:16:03;;;;;;;15.23;10.00;;;-3.40;99.90;-4.00;101015.00;;;;5032944;27;91957;-67
2021/12/23 01:18:38;;;;;;;10.87;9.73;;;-3.40;99.90;-4.00;101021.00;;;;5033724;27;92782;-67
2021/12/23 01:21:15;;;;;;;19.10;10.17;;;-3.50;99.90;-4.00;101013.00;;;;5036035;27;92941;-67
2021/12/23 01:23:48;;;;;;;20.67;9.70;;;-3.40;99.90;-4.00;101022.00;;;;5052780;27;93603;-67
2021/12/23 01:26:20;;;;;;;15.77;9.03;;;-3.60;99.90;-4.00;101011.00;;;;5056857;27;93072;-67
2021/12/23 01:28:50;;;;;;;19.20;10.97;;;-3.50;99.90;-4.00;101015.00;;;;5037069;27;93003;-67
2021/12/23 01:31:16;;;;;;;11.87;8.93;;;-2.60;99.90;-4.00;101006.00;;;;5034732;27;94284;-67
2021/12/23 01:33:42;;;;;;;14.63;9.13;;;-3.60;99.90;-4.00;100994.00;;;;5036091;27;93241;-67
2021/12/23 01:36:08;;;;;;;12.43;9.43;;;-3.50;99.90;-4.10;100990.00;;;;5036299;27;92887;-67
2021/12/23 01:38:34;;;;;;;17.57;11.27;;;-3.60;99.90;-4.10;101006.00;;;;5034642;27;109736;-67
2021/12/23 01:41:00;;;;;;;14.33;9.57;;;-3.60;99.90;-4.20;100987.00;;;;5034386;27;121995;-67
2021/12/23 01:43:26;;;;;;;11.73;9.23;;;-3.60;99.90;-4.10;100990.00;;;;5052566;27;99779;-67
2021/12/23 01:45:52;;;;;;;20.03;11.17;;;-3.30;99.90;-4.20;100990.00;;;;5053727;27;110343;-67
2021/12/23 01:48:19;;;;;;;14.57;10.53;;;-3.70;99.90;-4.20;100984.00;;;;5054257;27;108851;-67
2021/12/23 01:50:47;;;;;;;13.67;8.83;;;-3.60;99.90;-4.20;100971.00;;;;5035148;27;108266;-67
2021/12/23 01:53:16;;;;;;;17.57;10.07;;;-4.10;99.90;-4.20;100983.00;;;;5055807;27;105683;-67
2021/12/23 01:55:42;;;;;;;11.83;8.33;;;-3.70;99.90;-4.20;100984.00;;;;5055326;27;92750;-67
2021/12/23 01:58:10;;;;;;;10.37;7.73;;;-3.80;99.90;-4.20;100985.00;;;;5053641;27;92839;-67
2021/12/23 02:00:39;;;;;;;26.97;9.90;;;-3.80;99.90;-4.30;100974.00;;;;5054252;27;94031;-67
2021/12/23 02:03:05;;;;;;;16.23;8.63;;;-3.80;99.90;-4.30;100971.00;;;;5057288;27;93776;-68
2021/12/23 02:05:31;;;;;;;20.17;11.77;;;-3.70;99.90;-4.40;100973.00;;;;5038471;27;92257;-68
2021/12/23 02:07:58;;;;;;;15.87;9.63;;;-3.80;99.90;-4.40;100961.00;;;;5019316;27;92998;-67
2021/12/23 02:10:26;;;;;;;17.63;9.33;;;-3.90;99.90;-4.40;100944.00;;;;5055142;27;106092;-67
2021/12/23 02:12:51;;;;;;;15.70;10.30;;;-3.90;99.90;-4.50;100943.00;;;;5037156;27;109859;-67
2021/12/23 02:15:18;;;;;;;15.93;9.33;;;-3.90;99.90;-4.50;100928.00;;;;5054840;27;92836;-68
2021/12/23 02:17:46;;;;;;;14.40;9.27;;;-3.90;99.90;-4.60;100939.00;;;;5054919;27;92994;-67
2021/12/23 02:20:27;;;;;;;14.93;9.33;;;-4.10;99.90;-4.60;100916.00;;;;5036260;27;93060;-67
2021/12/23 02:22:52;;;;;;;12.03;8.43;;;-4.30;99.90;-4.60;100928.00;;;;5046311;27;105620;-67
2021/12/23 02:25:19;;;;;;;14.10;9.03;;;-4.10;99.90;-4.60;100926.00;;;;5050713;27;93014;-67
2021/12/23 02:27:46;;;;;;;20.70;10.00;;;-4.10;99.90;-4.60;100929.00;;;;5055262;27;94161;-68
2021/12/23 02:30:22;;;;;;;16.73;9.47;;;-4.20;99.90;-4.60;100913.00;;;;5052523;27;103996;-67
2021/12/23 02:32:49;;;;;;;15.50;10.37;;;-4.00;99.90;-4.50;100909.00;;;;5044285;27;93129;-67
2021/12/23 02:35:17;;;;;;;14.63;9.37;;;-4.10;99.90;-4.50;100905.00;;;;5014697;27;95002;-67
2021/12/23 02:37:46;;;;;;;15.03;8.77;;;-4.10;99.90;-4.50;100896.00;;;;5044179;27;97467;-67
2021/12/23 02:40:32;;;;;;;17.23;11.63;;;-4.00;99.90;-4.50;100892.00;;;;5055062;27;94146;-67
2021/12/23 02:43:17;;;;;;;18.30;10.20;;;-3.90;99.90;-4.40;100885.00;;;;5024786;27;97873;-67
2021/12/23 02:45:47;;;;;;;12.73;9.87;;;-3.90;99.90;-4.40;100883.00;;;;5055036;27;93018;-67
2021/12/23 02:48:18;;;;;;;18.57;9.93;;;-3.90;99.90;-4.40;100892.00;;;;5048872;27;92997;-67
2021/12/23 02:50:47;;;;;;;13.73;9.60;;;-3.90;99.90;-4.40;100886.00;;;;5034232;27;96146;-67
2021/12/23 02:53:14;;;;;;;13.70;9.50;;;-4.00;99.90;-4.40;100883.00;;;;5041756;27;93199;-67
2021/12/23 02:55:40;;;;;;;18.30;10.03;;;-3.90;99.90;-4.40;100870.00;;;;5035341;27;92253;-67
2021/12/23 02:58:06;;;;;;;13.87;9.77;;;-3.90;99.90;-4.40;100870.00;;;;5054223;27;92909;-67
2021/12/23 03:00:33;;;;;;;12.23;9.03;;;-3.90;99.90;-4.30;100854.00;;;;5053920;27;101731;-67
2021/12/23 03:02:59;;;;;;;14.07;9.83;;;-3.70;99.90;-4.20;100856.00;;;;5052701;27;93769;-67
2021/12/23 03:05:25;;;;;;;12.00;9.33;;;-3.80;99.90;-4.10;100843.00;;;;5053800;27;110638;-67
2021/12/23 03:07:51;;;;;;;15.83;9.87;;;-3.70;99.90;-4.10;100850.00;;;;5054467;27;108838;-66
2021/12/23 03:10:17;;;;;;;14.90;10.30;;;-3.60;99.90;-4.10;100815.00;;;;5040585;27;123428;-67
2021/12/23 03:12:42;;;;;;;14.47;9.03;;;-3.60;99.90;-4.00;100823.00;;;;5033436;27;93810;-67
2021/12/23 03:15:08;;;;;;;14.87;9.43;;;-3.50;99.90;-4.00;100818.00;;;;5033621;27;113267;-66
2021/12/23 03:17:34;;;;;;;12.67;7.60;;;-3.60;99.90;-4.00;100818.00;;;;5014945;27;107829;-66
2021/12/23 03:20:01;;;;;;;12.87;9.50;;;-3.50;99.90;-4.00;100826.00;;;;5032509;27;121835;-66
2021/12/23 03:22:27;;;;;;;14.07;8.93;;;-3.60;99.90;-4.00;100804.00;;;;5040845;27;108390;-66
2021/12/23 03:24:52;;;;;;;14.40;7.57;;;-3.60;99.90;-4.00;100814.00;;;;5053558;27;94356;-67
2021/12/23 03:27:18;;;;;;;12.07;8.17;;;-3.50;99.90;-3.90;100816.00;;;;5051639;27;108267;-66
2021/12/23 03:29:44;;;;;;;15.17;9.53;;;-3.50;99.90;-3.90;100810.00;;;;5054361;27;93394;-66
2021/12/23 03:32:09;;;;;;;18.23;9.13;;;-3.50;99.90;-3.90;100803.00;;;;5042251;27;124251;-66
2021/12/23 03:34:35;;;;;;;14.00;8.37;;;-3.40;99.90;-3.80;100798.00;;;;5032715;27;110575;-66
2021/12/23 03:37:01;;;;;;;15.43;8.27;;;-3.30;99.90;-3.80;100799.00;;;;5034325;27;109127;-66
2021/12/23 03:39:26;;;;;;;14.40;8.73;;;-3.30;99.90;-3.70;100794.00;;;;5032762;27;122089;-66
2021/12/23 03:41:52;;;;;;;13.77;7.33;;;-3.40;99.90;-3.70;100793.00;;;;5036170;27;122268;-66
2021/12/23 03:44:18;;;;;;;13.83;9.07;;;-3.20;99.90;-3.70;100789.00;;;;5054075;27;92653;-66
2021/12/23 03:46:44;;;;;;;17.97;10.07;;;-3.30;99.90;-3.70;100777.00;;;;5053641;27;108384;-66
2021/12/23 03:49:10;;;;;;;12.80;9.50;;;-3.30;99.90;-3.60;100776.00;;;;5052627;27;107244;-66
2021/12/23 03:51:36;;;;;;;12.73;9.67;;;-3.20;99.90;-3.60;100777.00;;;;5053157;27;101474;-66
2021/12/23 03:54:02;;;;;;;10.57;8.80;;;-3.10;99.90;-3.50;100762.00;;;;5052305;27;92948;-66
2021/12/23 03:56:29;;;;;;;11.93;10.23;;;-3.10;99.90;-3.50;100759.00;;;;5053175;27;92741;-66
2021/12/23 03:58:56;;;;;;;18.40;9.47;;;-3.10;99.90;-3.50;100746.00;;;;5053387;27;94253;-66
2021/12/23 04:01:24;;;;;;;10.30;7.90;;;-3.10;99.90;-3.40;100754.00;;;;5053668;27;92907;-66
2021/12/23 04:03:51;;;;;;;14.37;9.57;;;-3.00;99.90;-3.40;100748.00;;;;5053970;27;92788;-66
2021/12/23 04:06:18;;;;;;;11.30;8.20;;;-3.00;99.90;-3.40;100734.00;;;;5040859;27;92945;-66
2021/12/23 04:08:44;;;;;;;14.50;8.87;;;-2.90;99.90;-3.40;100727.00;;;;5052545;27;93454;-67
2021/12/23 04:11:11;;;;;;;12.83;7.97;;;-2.90;99.90;-3.40;100723.00;;;;5034423;27;93469;-67
2021/12/23 04:13:36;;;;;;;10.30;7.57;;;-3.30;99.90;-3.50;100712.00;;;;5053414;27;92698;-66
2021/12/23 04:16:02;;;;;;;13.93;7.93;;;-2.90;99.90;-3.50;100722.00;;;;5052870;27;93662;-66
2021/12/23 04:18:28;;;;;;;14.87;9.23;;;-3.10;99.90;-3.50;100696.00;;;;5052715;27;107887;-66
2021/12/23 04:20:54;;;;;;;15.37;8.77;;;-2.90;99.90;-3.50;100695.00;;;;5052679;27;121925;-66
2021/12/23 04:23:25;;;;;;;12.57;8.07;;;-3.00;99.90;-3.60;100683.00;;;;5053869;27;92856;-67
2021/12/23 04:25:52;;;;;;;16.43;9.80;;;-3.00;99.90;-3.60;100693.00;;;;5053681;27;92645;-66
2021/12/23 04:28:19;;;;;;;11.43;9.00;;;-3.10;99.90;-3.60;100692.00;;;;5053263;27;102675;-68
2021/12/23 04:30:44;;;;;;;11.23;7.17;;;-3.10;99.90;-3.60;100686.00;;;;5052626;27;92991;-68
2021/12/23 04:33:10;;;;;;;10.67;8.80;;;-3.10;99.90;-3.60;100685.00;;;;5042428;27;110031;-67
2021/12/23 04:35:36;;;;;;;12.57;8.73;;;-3.10;99.90;-3.60;100679.00;;;;5032704;27;98985;-65
2021/12/23 04:38:03;;;;;;;15.37;8.87;;;-3.20;99.90;-3.60;100674.00;;;;5033381;27;93083;-66
2021/12/23 04:40:34;;;;;;;15.87;9.93;;;-3.10;99.90;-3.60;100677.00;;;;5032190;27;93895;-65
2021/12/23 04:43:02;;;;;;;11.47;9.33;;;-3.20;99.90;-3.70;100661.00;;;;5033164;27;92745;-65
2021/12/23 04:45:28;;;;;;;11.57;8.73;;;-3.20;99.90;-3.70;100653.00;;;;5033321;27;92879;-65
2021/12/23 04:47:54;;;;;;;10.20;7.37;;;-3.20;99.90;-3.70;100651.00;;;;5035019;27;123690;-66
2021/12/23 04:50:19;;;;;;;13.53;9.17;;;-3.10;99.90;-3.60;100638.00;;;;5051904;27;122918;-66
2021/12/23 04:52:45;;;;;;;14.17;8.90;;;-2.90;99.90;-3.60;100638.00;;;;5053084;27;93629;-66
2021/12/23 04:55:13;;;;;;;14.10;7.43;;;-2.40;99.90;-3.60;100636.00;;;;5036391;27;108034;-65
2021/12/23 04:57:39;;;;;;;11.97;10.23;;;-3.20;99.90;-3.60;100629.00;;;;5046645;27;92609;-67
2021/12/23 05:00:14;;;;;;;14.20;8.97;;;-3.20;99.90;-3.50;100625.00;;;;5034066;27;122177;-68
2021/12/23 05:02:40;;;;;;;15.67;8.97;;;-3.20;99.90;-3.50;100624.00;;;;5051970;27;92919;-66
2021/12/23 05:05:07;;;;;;;14.70;8.73;;;-3.10;99.90;-3.50;100629.00;;;;5055022;27;108505;-66
2021/12/23 05:07:32;;;;;;;12.93;8.77;;;-3.10;99.90;-3.50;100623.00;;;;5055931;27;101322;-66
2021/12/23 05:09:58;;;;;;;11.43;8.20;;;-3.00;99.90;-3.50;100632.00;;;;5055894;27;122799;-66
2021/12/23 05:12:24;;;;;;;12.87;8.43;;;-3.00;99.90;-3.40;100623.00;;;;5055033;27;96222;-66
2021/12/23 05:14:50;;;;;;;9.23;7.60;;;-3.00;99.90;-3.40;100611.00;;;;5036678;27;92979;-66
2021/12/23 05:17:16;;;;;;;8.43;6.53;;;-2.90;99.90;-3.40;100611.00;;;;5055048;27;122323;-67
2021/12/23 05:19:42;;;;;;;14.90;10.23;;;-2.90;99.90;-3.40;100604.00;;;;5035975;27;122189;-66
2021/12/23 05:22:08;;;;;;;11.97;7.73;;;-2.90;99.90;-3.30;100600.00;;;;5056335;27;92227;-66
2021/12/23 05:24:33;;;;;;;11.67;8.17;;;-2.90;99.90;-3.40;100595.00;;;;5055839;27;92935;-66
2021/12/23 05:26:59;;;;;;;10.00;7.47;;;-2.90;99.90;-3.40;100590.00;;;;5055931;27;94091;-65
2021/12/23 05:29:25;;;;;;;15.90;8.07;;;-2.90;99.90;-3.40;100594.00;;;;5048596;27;122370;-66
2021/12/23 05:31:51;;;;;;;11.00;7.87;;;-2.90;99.90;-3.40;100593.00;;;;5035427;27;109849;-66
2021/12/23 05:34:17;;;;;;;14.27;8.37;;;-2.90;99.90;-3.40;100578.00;;;;5035972;27;92737;-66
2021/12/23 05:36:43;;;;;;;11.50;7.43;;;-3.00;99.90;-3.40;100579.00;;;;5036339;27;115148;-66
2021/12/23 05:39:09;;;;;;;11.03;8.27;;;-3.00;99.90;-3.40;100567.00;;;;5033305;27;123724;-66
2021/12/23 05:41:35;;;;;;;13.17;8.47;;;-3.00;99.90;-3.40;100573.00;;;;5037806;27;92969;-67
2021/12/23 05:44:01;;;;;;;12.83;7.83;;;-2.90;99.90;-3.30;100563.00;;;;5037343;27;92812;-66
2021/12/23 05:46:27;;;;;;;15.40;9.57;;;-2.80;99.90;-3.30;100566.00;;;;5055636;27;104095;-66
2021/12/23 05:48:53;;;;;;;13.83;9.20;;;-2.90;99.90;-3.30;100551.00;;;;5054432;27;122142;-66
2021/12/23 05:51:19;;;;;;;17.57;9.77;;;-2.90;99.90;-3.30;100545.00;;;;5038846;27;92810;-66
2021/12/23 05:53:44;;;;;;;14.63;8.97;;;-2.80;99.90;-3.20;100552.00;;;;5035639;27;93884;-66
2021/12/23 05:56:11;;;;;;;16.30;9.60;;;-2.80;99.90;-3.20;100561.00;;;;5015370;27;122820;-67
2021/12/23 05:58:36;;;;;;;13.53;9.50;;;-2.80;99.90;-3.20;100559.00;;;;5036511;27;93241;-66
2021/12/23 06:01:03;;;;;;;16.23;9.03;;;-2.80;99.90;-3.20;100553.00;;;;5034467;27;110301;-67
2021/12/23 06:03:29;;;;;;;11.03;9.50;;;-2.70;99.90;-3.10;100560.00;;;;5036406;27;92900;-66
2021/12/23 06:05:55;;;;;;;13.63;8.53;;;-2.70;99.90;-3.10;100556.00;;;;5034111;27;109025;-66
2021/12/23 06:08:20;;;;;;;13.33;8.67;;;-2.80;99.90;-3.00;100557.00;;;;5030649;27;122968;-66
2021/12/23 06:10:46;;;;;;;16.20;10.37;;;-2.60;99.90;-3.00;100550.00;;;;5021299;27;92146;-66
2021/12/23 06:13:12;;;;;;;16.60;8.53;;;-2.60;99.90;-2.90;100549.00;;;;5034898;27;108597;-66
2021/12/23 06:15:37;;;;;;;15.67;9.23;;;-2.50;99.90;-2.80;100535.00;;;;5025563;27;122028;-66
2021/12/23 06:18:03;;;;;;;10.43;9.00;;;-2.80;99.90;-2.80;100547.00;;;;5034377;27;121729;-67
2021/12/23 06:20:29;;;;;;;14.93;9.87;;;-2.40;99.90;-2.70;100556.00;;;;5025620;27;109014;-66
2021/12/23 06:22:55;;;;;;;12.97;9.27;;;-2.40;99.90;-2.70;100560.00;;;;5035317;27;92819;-66
2021/12/23 06:25:21;;;;;;;14.50;9.00;;;-2.30;99.90;-2.70;100549.00;;;;5027518;27;94022;-66
2021/12/23 06:27:46;;;;;;;13.30;8.23;;;-2.40;99.90;-2.60;100556.00;;;;5035056;27;94523;-66
2021/12/23 06:30:18;;;;;;;14.47;8.87;;;-2.30;99.90;-2.60;100544.00;;;;5025480;27;109516;-66
2021/12/23 06:32:48;;;;;;;11.93;8.30;;;-2.20;99.90;-2.50;100535.00;;;;5035721;27;93232;-66
2021/12/23 06:35:15;;;;;;;14.67;9.67;;;-2.10;99.90;-2.50;100541.00;;;;5026251;27;93346;-67
2021/12/23 06:37:42;;;;;;;14.63;8.33;;;-2.20;99.90;-2.50;100543.00;;;;5035221;27;102747;-67
2021/12/23 06:40:09;;;;;;;16.77;9.13;;;-1.40;99.90;-2.50;100535.00;;;;5026780;27;92913;-67
2021/12/23 06:42:35;;;;;;;16.03;10.07;;;-2.10;99.90;-2.40;100532.00;;;;5035660;27;93970;-67
2021/12/23 06:45:02;;;;;;;15.17;9.73;;;-2.10;99.90;-2.40;100525.00;;;;5025428;27;93305;-67
2021/12/23 06:47:27;;;;;;;17.37;10.13;;;-2.10;99.90;-2.40;100547.00;;;;5040097;27;101187;-66
2021/12/23 06:49:53;;;;;;;15.73;9.77;;;-2.00;99.90;-2.40;100559.00;;;;5052940;27;110440;-67
2021/12/23 06:52:19;;;;;;;12.83;9.97;;;-2.00;99.90;-2.40;100542.00;;;;5053925;27;109325;-67
2021/12/23 06:54:48;;;;;;;19.00;9.83;;;-1.40;99.90;-2.30;100543.00;;;;5026169;27;122904;-67
2021/12/23 06:57:14;;;;;;;14.33;9.40;;;-1.80;99.90;-2.30;100545.00;;;;5031199;27;93440;-67
2021/12/23 06:59:40;;;;;;;14.23;9.00;;;-1.90;99.90;-2.30;100529.00;;;;5039188;27;92120;-67
2021/12/23 07:02:06;;;;;;;15.20;9.10;;;-1.90;99.90;-2.20;100520.00;;;;5027939;27;109617;-68
2021/12/23 07:04:34;;;;;;;13.07;9.70;;;-1.90;99.90;-2.20;100505.00;;;;5042126;27;93191;-66
2021/12/23 07:07:11;;;;;;;13.53;10.03;;;-1.90;99.90;-2.20;100531.00;;;;5031974;27;93982;-66
2021/12/23 07:09:40;;;;;;;13.83;8.20;;;-1.90;99.90;-2.20;100522.00;;;;5044505;27;93254;-66
2021/12/23 07:12:08;;;;;;;13.97;9.70;;;-1.80;99.90;-2.20;100522.00;;;;5045714;27;92961;-66
2021/12/23 07:14:36;;;;;;;18.13;10.50;;;-1.80;99.90;-2.10;100520.00;;;;5029328;27;94000;-66
2021/12/23 07:17:02;;;;;;;12.70;8.73;;;-0.80;99.90;-2.10;100515.00;;;;5006562;27;94888;-67
2021/12/23 07:19:27;;;;;;;18.43;10.53;;;-1.70;99.90;-2.10;100500.00;;;;5037492;27;92944;-66
2021/12/23 07:21:53;;;;;;;19.90;10.30;;;-1.80;99.90;-2.10;100510.00;;;;5033436;27;98277;-67
2021/12/23 07:24:20;;;;;;;17.57;10.57;;;-1.80;99.90;-2.10;100504.00;;;;5031096;27;93045;-66
2021/12/23 07:26:46;;;;;;;17.80;11.83;;;-1.30;99.90;-2.10;100485.00;;;;5024713;27;92891;-66
2021/12/23 07:29:11;;;;;;;19.40;10.17;;;-1.60;99.90;-2.10;100504.00;;;;5026893;27;112465;-66
2021/12/23 07:31:37;;;;;;;24.80;14.50;;;-1.80;99.90;-2.10;100498.00;;;;5022350;27;107733;-68
2021/12/23 07:34:03;;;;;;;15.07;9.30;;;-1.70;99.90;-2.20;100485.00;;;;5008885;27;93650;-67
2021/12/23 07:36:29;;;;;;;17.00;10.67;;;-1.80;99.90;-2.10;100510.00;;;;5021739;27;122055;-67
2021/12/23 07:38:56;;;;;;;16.77;10.13;;;-1.80;99.90;-2.10;100490.00;;;;5037600;27;92834;-67
2021/12/23 07:41:26;;;;;;;17.90;9.90;;;-1.70;99.90;-2.10;100491.00;;;;5022933;27;93037;-67
2021/12/23 07:43:58;;;;;;;14.20;9.77;;;-1.70;99.90;-2.10;100497.00;;;;5018739;27;93571;-67
2021/12/23 07:46:31;;;;;;;15.43;9.20;;;-1.80;99.90;-2.10;100495.00;;;;5030466;27;94347;-67
2021/12/23 07:48:57;;;;;;;18.27;9.93;;;-1.90;99.90;-2.00;100501.00;;;;5030361;27;98654;-67
2021/12/23 07:51:24;;;;;;;13.27;8.83;;;-1.70;99.90;-2.00;100490.00;;;;5037183;27;93036;-67
2021/12/23 07:53:50;;;;;;;17.23;10.43;;;-1.30;99.90;-1.90;100489.00;;;;5031317;27;93356;-67
2021/12/23 07:56:19;;;;;;;21.73;10.23;;;-1.60;99.90;-1.90;100491.00;;;;5029625;27;93912;-66
2021/12/23 07:58:45;;;;;;;15.83;9.63;;;-1.60;99.90;-1.80;100480.00;;;;5037871;27;92850;-66
2021/12/23 08:01:10;;;;;;;11.83;8.97;;;-1.50;99.90;-1.80;100470.00;;;;5011492;27;92983;-66
2021/12/23 08:03:36;;;;;;;16.27;9.93;;;-1.50;99.90;-1.80;100469.00;;;;5023357;27;122873;-65
2021/12/23 08:06:02;;;;;;;19.73;10.43;;;-1.40;99.90;-1.80;100483.00;;;;5021008;27;122991;-65
2021/12/23 08:08:28;;;;;;;14.27;9.07;;;-1.40;99.90;-1.70;100471.00;;;;5030677;27;92866;-66
2021/12/23 08:10:54;;;;;;;14.60;10.57;;;-1.40;99.90;-1.70;100475.00;;;;5021923;27;93208;-66
2021/12/23 08:13:20;;;;;;;24.80;10.03;;;-1.40;99.90;-1.70;100463.00;;;;5031312;27;92290;-65
2021/12/23 08:15:46;;;;;;;16.57;9.33;;;-1.40;99.90;-1.60;100453.00;;;;5024557;27;92793;-66
2021/12/23 08:18:11;;;;;;;12.97;8.50;;;-1.30;99.90;-1.60;100463.00;;;;5029538;27;113151;-66
2021/12/23 08:20:37;;;;;;;15.37;9.83;;;-1.20;99.90;-1.60;100454.00;;;;5029237;27;93860;-65
2021/12/23 08:23:03;;;;;;;12.83;8.77;;;-1.20;99.90;-1.50;100442.00;;;;5010502;27;93666;-65
2021/12/23 08:25:29;;;;;;;15.47;10.37;;;-1.30;99.90;-1.50;100449.00;;;;5041132;27;123273;-66
2021/12/23 08:27:55;;;;;;;15.13;9.57;;;-1.20;99.90;-1.50;100422.00;;;;5039879;27;92892;-67
2021/12/23 08:30:22;;;;;;;19.77;9.80;;;-1.10;99.90;-1.50;100426.00;;;;5033828;27;92832;-67
2021/12/23 08:32:48;;;;;;;18.67;10.23;;;-1.20;99.90;-1.40;100412.00;;;;5046040;27;123225;-66
2021/12/23 08:35:16;;;;;;;15.23;9.03;;;-1.10;99.90;-1.40;100415.00;;;;5032719;27;93075;-67
2021/12/23 08:37:45;;;;;;;15.93;9.37;;;-1.10;99.90;-1.40;100413.00;;;;5035174;27;92307;-67
2021/12/23 08:40:15;;;;;;;19.57;9.90;;;-1.10;99.90;-1.40;100412.00;;;;5033947;27;92796;-67
2021/12/23 08:42:41;;;;;;;15.83;10.37;;;-1.10;99.90;-1.40;100414.00;;;;5028396;27;94857;-66
2021/12/23 08:45:07;;;;;;;10.23;8.10;;;-0.90;99.90;-1.30;100401.00;;;;5031715;27;107918;-66
2021/12/23 08:47:35;;;;;;;18.57;10.80;;;-1.00;99.90;-1.30;100389.00;;;;5039920;27;94337;-66
2021/12/23 08:50:04;;;;;;;16.93;9.63;;;-1.00;99.90;-1.30;100400.00;;;;5017590;27;93301;-66
2021/12/23 08:52:30;;;;;;;12.10;8.67;;;-1.00;99.90;-1.20;100405.00;;;;5042201;27;93984;-67
2021/12/23 08:54:55;;;;;;;13.60;9.97;;;-0.90;99.90;-1.20;100403.00;;;;5031914;27;122387;-66
2021/12/23 08:57:21;;;;;;;15.23;8.80;;;-0.90;99.90;-1.20;100396.00;;;;5014781;27;109146;-67
2021/12/23 08:59:47;;;;;;;13.53;9.23;;;-0.90;99.90;-1.10;100389.00;;;;5032220;27;107956;-67
2021/12/23 09:02:15;;;;;;;14.67;9.47;;;-0.90;99.90;-1.10;100387.00;;;;5034294;27;114919;-66
2021/12/23 09:04:41;;;;;;;17.97;9.43;;;-0.80;99.90;-1.10;100373.00;;;;5036237;27;93325;-66
2021/12/23 09:07:09;;;;;;;19.07;10.30;;;-0.80;99.90;-1.10;100362.00;;;;5032306;27;92739;-66
2021/12/23 09:09:36;;;;;;;20.13;10.77;;;-0.80;99.90;-1.10;100365.00;;;;5034918;27;95625;-66
2021/12/23 09:12:04;;;;;;;17.93;9.53;;;-0.70;99.90;-1.10;100370.00;;;;5035057;27;94231;-66
2021/12/23 09:14:32;;;;;;;12.20;8.73;;;-0.60;99.90;-1.10;100368.00;;;;5032583;27;94003;-66
2021/12/23 09:16:57;;;;;;;14.80;10.07;;;-0.50;99.90;-1.00;100370.00;;;;5032367;27;92861;-67
2021/12/23 09:19:23;;;;;;;15.83;9.63;;;-0.80;99.90;-1.00;100360.00;;;;5032677;27;109134;-67
2021/12/23 09:21:49;;;;;;;15.13;8.77;;;-0.70;99.90;-0.90;100364.00;;;;5032287;27;94068;-67
2021/12/23 09:24:15;;;;;;;19.77;11.00;;;-0.70;99.90;-0.90;100354.00;;;;5032801;27;93129;-66
2021/12/23 09:26:51;;;;;;;17.47;9.73;;;-0.70;99.90;-0.90;100357.00;;;;5033143;27;92131;-66
2021/12/23 09:32:40;;;;;;;16.93;9.93;;;-0.60;99.90;-0.90;100358.00;;;;5033647;27;92837;-66
2021/12/23 09:34:53;;;;;;;15.87;8.80;;;-0.40;99.90;-0.80;100353.00;;;;5032019;27;94123;-67
2021/12/23 09:37:19;;;;;;;19.30;10.80;;;-0.40;99.90;-0.80;100357.00;;;;5033251;27;93513;-66
2021/12/23 09:39:51;;;;;;;20.57;10.47;;;-1.10;99.90;-0.70;100349.00;;;;5031697;27;92791;-66
2021/12/23 09:42:33;;;;;;;17.37;9.87;;;-0.40;99.90;-0.70;100340.00;;;;5031612;27;93935;-67
2021/12/23 09:45:05;;;;;;;17.03;9.97;;;-0.40;99.90;-0.70;100341.00;;;;5031807;27;108211;-66
2021/12/23 09:47:34;;;;;;;18.00;9.23;;;-0.40;99.90;-0.70;100348.00;;;;5032647;27;92960;-65
2021/12/23 09:50:05;;;;;;;18.07;10.33;;;-0.30;99.90;-0.70;100334.00;;;;5039929;27;92684;-67
2021/12/23 09:52:34;;;;;;;13.90;9.63;;;-0.40;99.90;-0.60;100333.00;;;;5031512;27;92503;-67
2021/12/23 09:55:05;;;;;;;18.27;9.37;;;-0.30;99.90;-0.60;100344.00;;;;5033079;27;92987;-66
2021/12/23 09:57:31;;;;;;;14.50;9.37;;;-0.30;99.90;-0.60;100341.00;;;;5044438;27;92939;-66
2021/12/23 09:59:58;;;;;;;15.03;9.53;;;-0.30;99.90;-0.50;100343.00;;;;5037341;27;93879;-65
2021/12/23 10:02:24;;;;;;;12.73;8.13;;;-0.20;99.90;-0.50;100322.00;;;;5051496;27;93271;-65
2021/12/23 10:04:50;;;;;;;18.23;9.40;;;-0.20;99.90;-0.50;100307.00;;;;5052802;27;93808;-65
2021/12/23 10:07:16;;;;;;;17.57;9.10;;;-0.10;99.90;-0.40;100314.00;;;;5040348;27;111553;-65
2021/12/23 10:10:10;;;;;;;15.93;9.67;;;-0.10;99.90;-0.40;100314.00;;;;5033023;27;92924;-66
2021/12/23 10:13:09;;;;;;;17.70;9.87;;;-0.10;99.90;-0.40;100297.00;;;;5040644;27;93162;-66
2021/12/23 10:32:12;;;;;;;18.30;9.63;;;1.00;99.90;-0.20;100262.00;;;;5023872;27;93228;-66
2021/12/23 10:37:23;;;;;;;15.30;9.03;;;0.00;99.90;-0.20;100236.00;;;;5032876;27;114846;-65
2021/12/23 10:40:08;;;;;;;20.13;10.13;;;0.10;99.90;-0.20;100249.00;;;;5026993;27;92831;-65
2021/12/23 10:42:35;;;;;;;17.77;9.53;;;0.00;99.90;-0.20;100243.00;;;;5030128;27;94732;-65
2021/12/23 10:45:13;;;;;;;19.70;10.67;;;0.10;99.90;-0.20;100232.00;;;;5036726;27;104700;-65
2021/12/23 10:47:56;;;;;;;17.13;10.37;;;0.20;99.90;-0.10;100236.00;;;;5030545;27;92736;-66
2021/12/23 10:50:37;;;;;;;14.00;9.10;;;0.10;99.90;-0.20;100231.00;;;;5023404;27;92780;-65
2021/12/23 10:53:25;;;;;;;16.17;10.27;;;0.10;99.90;-0.10;100225.00;;;;5034780;27;93871;-66
2021/12/23 10:59:23;;;;;;;13.23;9.03;;;0.10;99.90;-0.10;100204.00;;;;5030650;27;92719;-66
2021/12/23 11:02:30;;;;;;;14.93;8.40;;;0.20;99.90;-0.10;100194.00;;;;5037113;27;93042;-65
2021/12/23 11:05:27;;;;;;;19.50;9.70;;;0.20;99.90;-0.10;100192.00;;;;5011045;27;93791;-67
2021/12/23 11:27:55;;;;;;;16.17;8.93;;;0.30;99.90;-0.10;100123.00;;;;5034496;27;81533;-66